createdAt,value
2023-04-29T00:01:07.172Z,59.91
2023-04-29T00:03:35.306Z,60.03
2023-04-29T00:06:03.327Z,60.53
2023-04-29T00:08:31.407Z,60.33
2023-04-29T00:10:59.193Z,60.26
2023-04-29T00:13:28.327Z,60.33
2023-04-29T00:15:56.126Z,60.08
2023-04-29T00:18:23.906Z,60.40
2023-04-29T00:20:51.732Z,60.23
2023-04-29T00:23:19.980Z,60.33
2023-04-29T00:25:47.885Z,60.50
2023-04-29T00:28:16.331Z,60.74
2023-04-29T00:30:46.145Z,60.65
2023-04-29T00:33:13.989Z,60.66
2023-04-29T00:35:41.733Z,60.70
2023-04-29T00:38:09.524Z,60.55
2023-04-29T00:40:37.565Z,60.64
2023-04-29T00:43:05.381Z,60.69
2023-04-29T00:45:33.178Z,60.94
2023-04-29T00:48:02.499Z,60.88
2023-04-29T00:50:30.875Z,60.78
2023-04-29T00:52:59.053Z,60.76
2023-04-29T00:55:27.537Z,60.77
2023-04-29T00:57:55.354Z,60.86
2023-04-29T01:00:24.532Z,60.95
2023-04-29T01:02:52.490Z,60.99
2023-04-29T01:05:21.852Z,61.01
2023-04-29T01:08:06.355Z,60.96
2023-04-29T01:10:40.688Z,61.09
2023-04-29T01:13:14.230Z,61.15
2023-04-29T01:15:48.433Z,61.08
2023-04-29T01:18:21.562Z,61.34
2023-04-29T01:20:51.373Z,61.43
2023-04-29T01:23:19.240Z,61.49
2023-04-29T01:25:49.160Z,61.59
2023-04-29T01:28:28.399Z,61.35
2023-04-29T01:31:02.091Z,61.33
2023-04-29T01:33:36.133Z,61.60
2023-04-29T01:36:13.998Z,61.61
2023-04-29T01:38:48.516Z,61.52
2023-04-29T01:41:21.264Z,61.62
2023-04-29T01:43:51.504Z,61.69
2023-04-29T01:46:20.361Z,61.84
2023-04-29T01:48:48.150Z,61.78
2023-04-29T01:51:16.015Z,61.80
2023-04-29T01:53:44.412Z,61.94
2023-04-29T01:56:12.231Z,61.87
2023-04-29T01:58:41.791Z,61.88
2023-04-29T02:01:10.535Z,61.87
2023-04-29T02:03:39.144Z,62.15
2023-04-29T02:06:08.039Z,62.05
2023-04-29T02:08:35.935Z,62.07
2023-04-29T02:11:03.761Z,62.21
2023-04-29T02:13:31.987Z,62.14
2023-04-29T02:16:09.093Z,62.16
2023-04-29T02:18:36.863Z,62.33
2023-04-29T02:21:05.351Z,62.39
2023-04-29T02:23:33.139Z,62.31
2023-04-29T02:26:01.696Z,62.30
2023-04-29T02:28:29.554Z,62.19
2023-04-29T02:30:57.487Z,62.59
2023-04-29T02:33:26.818Z,62.46
2023-04-29T02:35:54.563Z,62.47
2023-04-29T02:38:22.374Z,62.62
2023-04-29T02:40:50.495Z,62.58
2023-04-29T02:43:18.273Z,62.63
2023-04-29T02:45:46.345Z,62.69
2023-04-29T02:48:14.351Z,62.43
2023-04-29T02:50:43.525Z,62.84
2023-04-29T02:53:11.397Z,62.83
2023-04-29T02:55:39.386Z,62.66
2023-04-29T02:58:07.184Z,62.82
2023-04-29T03:00:35.050Z,62.98
2023-04-29T03:03:02.965Z,62.93
2023-04-29T03:05:30.848Z,63.21
2023-04-29T03:08:00.160Z,63.23
2023-04-29T03:10:28.083Z,63.19
2023-04-29T03:12:55.917Z,63.27
2023-04-29T03:15:23.826Z,63.23
2023-04-29T03:17:51.669Z,63.42
2023-04-29T03:20:20.423Z,63.33
2023-04-29T03:22:48.154Z,63.46
2023-04-29T03:25:17.374Z,63.58
2023-04-29T03:27:45.265Z,63.46
2023-04-29T03:30:13.396Z,63.72
2023-04-29T03:32:41.558Z,63.65
2023-04-29T03:35:14.152Z,63.98
2023-04-29T03:37:44.782Z,63.78
2023-04-29T03:40:14.249Z,63.99
2023-04-29T03:42:43.496Z,64.05
2023-04-29T03:45:13.180Z,64.05
2023-04-29T03:47:41.048Z,64.05
2023-04-29T03:50:09.495Z,64.12
2023-04-29T03:52:37.521Z,64.25
2023-04-29T03:55:05.800Z,64.15
2023-04-29T03:57:33.614Z,64.47
2023-04-29T04:00:03.479Z,64.52
2023-04-29T04:02:31.513Z,64.71
2023-04-29T04:04:59.467Z,64.79
2023-04-29T04:07:27.334Z,64.79
2023-04-29T04:09:55.368Z,64.87
2023-04-29T04:12:23.382Z,64.73
2023-04-29T04:14:51.377Z,64.88
2023-04-29T04:17:20.725Z,65.33
2023-04-29T04:19:48.545Z,65.35
2023-04-29T04:22:17.186Z,65.14
2023-04-29T04:24:51.065Z,65.55
2023-04-29T04:27:19.151Z,65.25
2023-04-29T04:29:46.955Z,65.68
2023-04-29T04:32:14.707Z,65.54
2023-04-29T04:34:43.843Z,65.35
2023-04-29T04:37:12.041Z,66.03
2023-04-29T04:39:40.008Z,66.07
2023-04-29T04:42:07.801Z,65.93
2023-04-29T04:44:35.619Z,66.16
2023-04-29T04:47:03.568Z,66.36
2023-04-29T04:49:31.531Z,66.64
2023-04-29T04:52:00.711Z,66.69
2023-04-29T04:54:28.498Z,67.04
2023-04-29T04:56:56.282Z,67.00
2023-04-29T04:59:24.007Z,67.06
2023-04-29T05:01:51.780Z,67.42
2023-04-29T05:04:19.663Z,67.26
2023-04-29T05:06:47.788Z,67.68
2023-04-29T05:09:16.965Z,67.47
2023-04-29T05:11:44.879Z,67.59
2023-04-29T05:14:12.723Z,67.73
2023-04-29T05:16:40.888Z,67.83
2023-04-29T05:19:09.710Z,67.98
2023-04-29T05:21:37.461Z,68.21
2023-04-29T05:24:06.172Z,68.41
2023-04-29T05:26:35.477Z,67.93
2023-04-29T05:29:03.342Z,68.27
2023-04-29T05:31:31.375Z,68.66
2023-04-29T05:33:59.243Z,68.33
2023-04-29T05:36:28.625Z,68.36
2023-04-29T05:38:56.684Z,68.24
2023-04-29T05:41:25.036Z,68.77
2023-04-29T05:43:54.178Z,69.25
2023-04-29T05:46:23.262Z,69.19
2023-04-29T05:48:51.248Z,68.73
2023-04-29T05:51:19.143Z,69.39
2023-04-29T05:53:46.902Z,69.52
2023-04-29T05:56:14.646Z,69.31
2023-04-29T05:58:42.393Z,69.00
2023-04-29T06:01:14.073Z,69.32
2023-04-29T06:03:42.838Z,69.43
2023-04-29T06:06:11.421Z,69.69
2023-04-29T06:08:39.435Z,69.64
2023-04-29T06:11:07.321Z,69.67
2023-04-29T06:13:35.078Z,69.62
2023-04-29T06:16:02.992Z,69.11
2023-04-29T06:18:32.223Z,69.77
2023-04-29T06:20:59.962Z,69.71
2023-04-29T06:23:27.764Z,69.52
2023-04-29T06:25:55.726Z,69.57
2023-04-29T06:28:23.527Z,69.85
2023-04-29T06:30:51.316Z,69.40
2023-04-29T06:33:19.061Z,69.68
2023-04-29T06:35:48.180Z,69.74
2023-04-29T06:38:15.982Z,69.71
2023-04-29T06:40:43.761Z,69.52
2023-04-29T06:43:11.499Z,70.03
2023-04-29T06:45:39.198Z,70.09
2023-04-29T06:48:07.448Z,70.09
2023-04-29T06:50:36.321Z,69.72
2023-04-29T06:53:05.560Z,70.08
2023-04-29T06:55:33.422Z,69.84
2023-04-29T06:58:01.120Z,70.01
2023-04-29T07:00:28.862Z,69.99
2023-04-29T07:02:56.875Z,70.20
2023-04-29T07:05:25.239Z,70.22
2023-04-29T07:07:53.017Z,70.12
2023-04-29T07:10:22.199Z,70.19
2023-04-29T07:12:49.997Z,70.35
2023-04-29T07:15:17.881Z,70.24
2023-04-29T07:17:45.759Z,70.05
2023-04-29T07:20:14.646Z,70.30
2023-04-29T07:22:42.371Z,70.24
2023-04-29T07:25:11.002Z,70.24
2023-04-29T07:27:40.248Z,70.34
2023-04-29T07:30:09.158Z,70.16
2023-04-29T07:32:37.230Z,70.00
2023-04-29T07:35:05.611Z,70.10
2023-04-29T07:37:33.471Z,70.01
2023-04-29T07:40:01.451Z,70.06
2023-04-29T07:42:30.195Z,70.14
2023-04-29T07:44:59.532Z,69.97
2023-04-29T07:47:27.463Z,69.93
2023-04-29T07:49:55.262Z,69.96
2023-04-29T07:52:23.059Z,69.73
2023-04-29T07:54:51.312Z,69.95
2023-04-29T07:57:19.738Z,69.92
2023-04-29T07:59:47.452Z,69.58
2023-04-29T08:02:16.810Z,69.74
2023-04-29T08:04:45.396Z,69.66
2023-04-29T08:07:13.697Z,69.25
2023-04-29T08:09:41.664Z,69.43
2023-04-29T08:12:09.745Z,69.29
2023-04-29T08:14:37.585Z,69.47
2023-04-29T08:17:05.662Z,69.47
2023-04-29T08:19:35.053Z,69.25
2023-04-29T08:22:04.194Z,68.92
2023-04-29T08:24:33.772Z,69.10
2023-04-29T08:27:01.796Z,68.76
2023-04-29T08:29:32.723Z,68.76
2023-04-29T08:32:00.842Z,68.63
2023-04-29T08:34:28.630Z,68.70
2023-04-29T08:36:58.405Z,68.42
2023-04-29T08:39:26.495Z,68.21
2023-04-29T08:41:56.487Z,68.11
2023-04-29T08:44:24.564Z,68.18
2023-04-29T08:46:53.527Z,68.26
2023-04-29T08:49:21.466Z,68.18
2023-04-29T08:51:51.582Z,68.13
2023-04-29T08:54:20.803Z,68.13
2023-04-29T08:56:49.766Z,68.23
2023-04-29T08:59:18.800Z,68.05
2023-04-29T09:01:50.791Z,68.15
2023-04-29T09:04:31.160Z,67.80
2023-04-29T09:06:59.471Z,67.57
2023-04-29T09:09:29.291Z,67.61
2023-04-29T09:11:57.163Z,67.82
2023-04-29T09:14:25.460Z,67.63
2023-04-29T09:16:53.662Z,67.42
2023-04-29T09:19:32.021Z,67.30
2023-04-29T09:22:00.832Z,67.14
2023-04-29T09:24:31.769Z,67.02
2023-04-29T09:27:00.518Z,66.82
2023-04-29T09:29:28.411Z,66.65
2023-04-29T09:31:58.826Z,66.52
2023-04-29T09:34:35.690Z,66.45
2023-04-29T09:37:03.823Z,66.29
2023-04-29T09:39:40.876Z,66.44
2023-04-29T09:42:09.742Z,66.49
2023-04-29T09:44:37.610Z,66.42
2023-04-29T09:47:07.384Z,66.36
2023-04-29T09:49:37.539Z,66.20
2023-04-29T09:52:06.715Z,66.18
2023-04-29T09:54:37.283Z,65.96
2023-04-29T09:57:06.999Z,66.03
2023-04-29T09:59:36.187Z,65.91
2023-04-29T10:02:09.723Z,66.17
2023-04-29T10:04:41.585Z,65.49
2023-04-29T10:07:10.025Z,65.41
2023-04-29T10:09:41.623Z,65.44
2023-04-29T10:12:09.599Z,65.32
2023-04-29T10:14:44.521Z,65.49
2023-04-29T10:17:18.015Z,65.34
2023-04-29T10:19:53.563Z,65.38
2023-04-29T10:22:30.502Z,65.32
2023-04-29T10:25:02.220Z,65.19
2023-04-29T10:27:33.316Z,65.18
2023-04-29T10:30:04.998Z,65.19
2023-04-29T10:32:49.822Z,65.10
2023-04-29T10:35:22.744Z,64.84
2023-04-29T10:37:51.462Z,64.90
2023-04-29T10:40:26.126Z,64.25
2023-04-29T10:42:54.918Z,64.42
2023-04-29T10:45:25.102Z,64.44
2023-04-29T10:48:16.370Z,64.74
2023-04-29T10:51:03.724Z,64.48
2023-04-29T10:53:32.312Z,64.20
2023-04-29T10:56:08.768Z,64.05
2023-04-29T10:58:45.139Z,63.92
2023-04-29T11:01:14.572Z,64.13
2023-04-29T11:03:59.405Z,63.97
2023-04-29T11:06:40.063Z,63.81
2023-04-29T11:09:11.061Z,63.86
2023-04-29T11:11:48.977Z,63.65
2023-04-29T11:14:22.412Z,63.64
2023-04-29T11:16:53.718Z,63.45
2023-04-29T11:19:21.915Z,63.71
2023-04-29T11:21:49.737Z,63.67
2023-04-29T11:24:17.562Z,63.44
2023-04-29T11:26:47.102Z,63.22
2023-04-29T11:29:21.129Z,63.61
2023-04-29T11:31:48.982Z,62.87
2023-04-29T11:34:16.832Z,63.27
2023-04-29T11:36:47.009Z,63.10
2023-04-29T11:39:18.090Z,62.92
2023-04-29T11:41:47.453Z,63.27
2023-04-29T11:44:15.239Z,62.45
2023-04-29T11:46:43.170Z,63.05
2023-04-29T11:49:11.135Z,62.59
2023-04-29T11:51:39.099Z,62.13
2023-04-29T11:54:08.321Z,63.02
2023-04-29T11:56:38.663Z,62.21
2023-04-29T11:59:08.557Z,62.54
2023-04-29T12:01:37.076Z,62.18
2023-04-29T12:04:07.384Z,62.74
2023-04-29T12:06:35.388Z,62.12
2023-04-29T12:09:04.557Z,62.23
2023-04-29T12:11:32.337Z,61.79
2023-04-29T12:14:02.600Z,62.13
2023-04-29T12:16:32.289Z,61.84
2023-04-29T12:19:00.823Z,61.76
2023-04-29T12:21:28.761Z,61.42
2023-04-29T12:24:01.100Z,62.24
2023-04-29T12:26:29.600Z,61.69
2023-04-29T12:28:58.890Z,61.54
2023-04-29T12:31:36.493Z,61.54
2023-04-29T12:34:07.470Z,61.45
2023-04-29T12:36:37.362Z,60.77
2023-04-29T12:39:08.372Z,61.54
2023-04-29T12:41:40.623Z,61.31
2023-04-29T12:44:10.841Z,61.24
2023-04-29T12:46:41.536Z,61.53
2023-04-29T12:49:09.461Z,61.40
2023-04-29T12:51:37.716Z,61.10
2023-04-29T12:54:07.130Z,60.68
2023-04-29T12:56:35.191Z,60.67
2023-04-29T12:59:07.883Z,61.15
2023-04-29T13:01:35.825Z,60.93
2023-04-29T13:04:06.652Z,60.52
2023-04-29T13:06:34.740Z,60.93
2023-04-29T13:09:02.850Z,60.72
2023-04-29T13:11:34.329Z,60.66
2023-04-29T13:14:02.658Z,60.84
2023-04-29T13:16:30.494Z,60.11
2023-04-29T13:19:08.163Z,60.61
2023-04-29T13:21:42.214Z,60.48
2023-04-29T13:24:10.491Z,59.83
2023-04-29T13:26:39.430Z,59.96
2023-04-29T13:29:07.176Z,60.07
2023-04-29T13:31:35.261Z,60.04
2023-04-29T13:34:03.556Z,59.86
2023-04-29T13:36:31.345Z,59.68
2023-04-29T13:39:00.573Z,59.82
2023-04-29T13:41:28.613Z,59.98
2023-04-29T13:43:58.529Z,59.66
2023-04-29T13:46:27.381Z,59.61
2023-04-29T13:49:25.337Z,59.97
2023-04-29T13:52:03.885Z,59.57
2023-04-29T13:57:55.437Z,59.68
2023-04-29T13:59:53.316Z,59.62
2023-04-29T14:02:25.609Z,59.13
2023-04-29T14:04:54.740Z,59.87
2023-04-29T14:07:23.504Z,59.35
2023-04-29T14:09:52.937Z,59.53
2023-04-29T14:12:20.844Z,59.77
2023-04-29T14:14:48.918Z,59.57
2023-04-29T14:17:16.703Z,59.85
2023-04-29T14:19:44.599Z,59.65
2023-04-29T14:22:12.375Z,59.12
2023-04-29T14:24:40.427Z,59.26
2023-04-29T14:27:09.551Z,59.34
2023-04-29T14:29:37.493Z,59.04
2023-04-29T14:32:07.372Z,59.12
2023-04-29T14:34:36.182Z,58.72
2023-04-29T14:37:03.961Z,59.17
2023-04-29T14:39:31.805Z,58.78
2023-04-29T14:42:00.484Z,59.16
2023-04-29T14:44:30.672Z,59.48
2023-04-29T14:46:58.437Z,59.06
2023-04-29T14:49:26.377Z,58.89
2023-04-29T14:51:54.174Z,59.33
2023-04-29T14:54:21.981Z,59.44
2023-04-29T14:56:50.126Z,59.40
2023-04-29T14:59:18.009Z,59.48
2023-04-29T15:01:47.564Z,59.01
2023-04-29T15:04:15.425Z,59.14
2023-04-29T15:06:43.482Z,59.33
2023-04-29T15:09:11.259Z,59.16
2023-04-29T15:11:39.067Z,59.06
2023-04-29T15:14:07.094Z,58.70
2023-04-29T15:16:36.320Z,58.74
2023-04-29T15:19:05.597Z,58.85
2023-04-29T15:21:33.626Z,58.52
2023-04-29T15:24:02.199Z,58.34
2023-04-29T15:26:30.021Z,58.44
2023-04-29T15:28:57.837Z,58.25
2023-04-29T15:31:27.193Z,58.74
2023-04-29T15:33:56.647Z,58.43
2023-04-29T15:36:32.620Z,58.31
2023-04-29T15:39:00.437Z,58.05
2023-04-29T15:41:28.317Z,58.31
2023-04-29T15:43:58.286Z,58.01
2023-04-29T15:46:27.781Z,58.11
2023-04-29T15:48:55.815Z,58.26
2023-04-29T15:51:23.667Z,58.11
2023-04-29T15:53:52.780Z,57.59
2023-04-29T15:56:21.064Z,57.81
2023-04-29T15:58:49.007Z,57.51
2023-04-29T16:01:16.985Z,57.49
2023-04-29T16:03:44.810Z,57.27
2023-04-29T16:06:12.719Z,57.51
2023-04-29T16:08:40.495Z,57.83
2023-04-29T16:11:09.600Z,57.58
2023-04-29T16:13:37.502Z,57.22
2023-04-29T16:16:05.454Z,56.79
2023-04-29T16:18:33.772Z,57.02
2023-04-29T16:21:01.490Z,57.32
2023-04-29T16:23:29.377Z,56.89
2023-04-29T16:34:16.001Z,57.13
2023-04-29T16:36:43.864Z,56.68
2023-04-29T16:39:11.658Z,56.63
2023-04-29T16:41:39.518Z,57.03
2023-04-29T16:44:08.932Z,56.79
2023-04-29T16:46:36.947Z,57.04
2023-04-29T16:49:04.866Z,56.51
2023-04-29T16:51:33.711Z,57.23
2023-04-29T16:54:02.724Z,57.04
2023-04-29T16:56:30.834Z,56.73
2023-04-29T16:58:58.732Z,56.68
2023-04-29T17:01:28.999Z,57.15
2023-04-29T17:03:57.291Z,57.26
2023-04-29T17:06:25.579Z,56.82
2023-04-29T17:08:53.752Z,57.37
2023-04-29T17:11:21.559Z,57.10
2023-04-29T17:13:50.507Z,56.91
2023-04-29T17:16:18.430Z,57.09
2023-04-29T17:18:47.766Z,56.58
2023-04-29T17:21:15.688Z,57.11
2023-04-29T17:23:43.426Z,57.00
2023-04-29T17:26:11.251Z,56.75
2023-04-29T17:28:39.019Z,56.70
2023-04-29T17:31:06.998Z,56.95
2023-04-29T17:33:35.596Z,57.08
2023-04-29T17:36:06.070Z,56.59
2023-04-29T17:38:34.133Z,56.77
2023-04-29T17:41:02.627Z,57.05
2023-04-29T17:43:33.398Z,57.04
2023-04-29T17:46:01.472Z,56.92
2023-04-29T17:48:29.284Z,56.78
2023-04-29T17:50:57.082Z,56.96
2023-04-29T17:53:26.727Z,56.75
2023-04-29T17:55:54.517Z,57.14
2023-04-29T17:58:22.474Z,57.03
2023-04-29T18:00:50.565Z,56.89
2023-04-29T18:03:18.630Z,56.79
2023-04-29T18:05:47.405Z,56.99
2023-04-29T18:08:15.296Z,57.22
2023-04-29T18:10:44.409Z,57.06
2023-04-29T18:13:12.251Z,57.25
2023-04-29T18:15:40.197Z,57.24
2023-04-29T18:18:08.270Z,57.17
2023-04-29T18:20:36.348Z,57.11
2023-04-29T18:23:04.154Z,57.27
2023-04-29T18:25:32.029Z,57.24
2023-04-29T18:28:13.702Z,57.39
2023-04-29T18:30:50.116Z,57.42
2023-04-29T18:33:17.979Z,57.57
2023-04-29T18:35:45.771Z,57.46
2023-04-29T18:38:17.101Z,57.52
2023-04-29T18:40:45.135Z,57.64
2023-04-29T18:43:18.060Z,57.73
2023-04-29T18:45:46.175Z,57.75
2023-04-29T18:48:15.006Z,57.73
2023-04-29T18:50:43.589Z,57.86
2023-04-29T18:53:11.847Z,57.80
2023-04-29T18:55:39.620Z,57.90
2023-04-29T18:58:07.392Z,57.89
2023-04-29T19:00:36.756Z,58.16
2023-04-29T19:03:05.856Z,58.11
2023-04-29T19:05:33.620Z,57.99
2023-04-29T19:08:01.385Z,58.16
2023-04-29T19:10:29.245Z,58.05
2023-04-29T19:12:57.021Z,58.22
2023-04-29T19:15:27.962Z,58.33
2023-04-29T19:17:57.347Z,58.20
2023-04-29T19:20:25.769Z,58.35
2023-04-29T19:22:53.843Z,58.51
2023-04-29T19:25:21.879Z,58.51
2023-04-29T19:27:51.035Z,58.54
2023-04-29T19:30:19.511Z,58.56
2023-04-29T19:32:47.476Z,58.67
2023-04-29T19:35:16.711Z,58.60
2023-04-29T19:37:44.507Z,58.79
2023-04-29T19:40:12.880Z,58.74
2023-04-29T19:42:40.985Z,58.98
2023-04-29T19:45:10.169Z,59.33
2023-04-29T19:47:38.046Z,59.11
2023-04-29T19:50:06.850Z,59.18
2023-04-29T19:52:36.279Z,59.29
2023-04-29T19:55:04.872Z,59.46
2023-04-29T19:57:33.141Z,59.41
2023-04-29T20:00:01.457Z,59.39
2023-04-29T20:02:29.449Z,59.56
2023-04-29T20:04:57.318Z,59.24
2023-04-29T20:07:25.125Z,59.73
2023-04-29T20:09:54.552Z,59.72
2023-04-29T20:12:22.528Z,59.75
2023-04-29T20:14:50.261Z,59.91
2023-04-29T20:17:18.138Z,60.06
2023-04-29T20:19:46.000Z,59.97
2023-04-29T20:22:13.872Z,59.81
2023-04-29T20:24:41.736Z,60.17
2023-04-29T20:27:11.141Z,60.38
2023-04-29T20:29:38.942Z,60.13
2023-04-29T20:32:06.969Z,60.57
2023-04-29T20:34:36.406Z,60.42
2023-04-29T20:37:04.378Z,60.33
2023-04-29T20:39:32.153Z,60.64
2023-04-29T20:42:00.454Z,60.55
2023-04-29T20:44:30.043Z,60.70
2023-04-29T20:46:58.002Z,60.57
2023-04-29T20:49:26.330Z,60.78
2023-04-29T20:51:54.188Z,60.73
2023-04-29T20:54:22.507Z,60.82
2023-04-29T20:56:50.338Z,60.69
2023-04-29T20:59:19.740Z,61.18
2023-04-29T21:01:49.986Z,61.09
2023-04-29T21:04:18.318Z,61.32
2023-04-29T21:06:46.184Z,61.09
2023-04-29T21:09:14.026Z,61.06
2023-04-29T21:11:41.735Z,61.36
2023-04-29T21:14:09.490Z,61.60
2023-04-29T21:16:37.292Z,61.58
2023-04-29T21:19:06.479Z,61.44
2023-04-29T21:21:34.280Z,61.79
2023-04-29T21:24:02.113Z,61.84
2023-04-29T21:26:30.151Z,61.69
2023-04-29T21:28:57.896Z,62.03
2023-04-29T21:31:25.693Z,61.97
2023-04-29T21:33:53.752Z,62.09
2023-04-29T21:36:22.951Z,61.88
2023-04-29T21:38:52.757Z,61.92
2023-04-29T21:41:26.645Z,61.96
2023-04-29T21:43:55.734Z,62.33
2023-04-29T21:46:24.164Z,62.41
2023-04-29T21:48:52.413Z,62.53
2023-04-29T21:51:22.827Z,62.42
2023-04-29T21:53:50.750Z,62.52
2023-04-29T21:56:18.742Z,62.82
2023-04-29T21:58:46.962Z,62.58
2023-04-29T22:01:27.458Z,62.86
2023-04-29T22:03:56.993Z,62.94
2023-04-29T22:06:26.783Z,63.01
2023-04-29T22:08:54.701Z,63.11
2023-04-29T22:11:22.847Z,63.20
2023-04-29T22:13:50.745Z,63.02
2023-04-29T22:16:18.936Z,63.45
2023-04-29T22:18:46.854Z,63.51
2023-04-29T22:21:14.600Z,63.53
2023-04-29T22:23:44.006Z,63.76
2023-04-29T22:26:11.970Z,63.73
2023-04-29T22:28:39.733Z,63.80
2023-04-29T22:31:07.573Z,63.75
2023-04-29T22:33:35.849Z,63.83
2023-04-29T22:36:04.012Z,64.15
2023-04-29T22:38:31.787Z,64.15
2023-04-29T22:41:01.833Z,64.23
2023-04-29T22:43:29.764Z,64.34
2023-04-29T22:45:58.487Z,64.41
2023-04-29T22:48:27.723Z,64.52
2023-04-29T22:50:57.233Z,64.56
2023-04-29T22:53:25.024Z,65.05
2023-04-29T22:55:53.438Z,64.94
2023-04-29T22:58:24.632Z,64.83
2023-04-29T23:00:56.068Z,64.67
2023-04-29T23:03:24.269Z,65.05
2023-04-29T23:05:52.048Z,64.79
2023-04-29T23:08:19.794Z,65.13
2023-04-29T23:10:49.388Z,65.39
2023-04-29T23:13:17.653Z,65.20
2023-04-29T23:15:47.141Z,65.29
2023-04-29T23:18:14.927Z,65.52
2023-04-29T23:20:42.897Z,65.66
2023-04-29T23:23:10.671Z,65.56
2023-04-29T23:25:38.410Z,65.67
2023-04-29T23:28:06.753Z,65.76
2023-04-29T23:30:34.542Z,65.62
2023-04-29T23:33:03.671Z,65.72
2023-04-29T23:35:31.682Z,65.89
2023-04-29T23:37:59.504Z,65.98
2023-04-29T23:40:27.260Z,65.99
2023-04-29T23:42:55.157Z,66.05
2023-04-29T23:45:23.038Z,66.22
2023-04-29T23:47:50.866Z,66.19
2023-04-29T23:50:20.370Z,66.34
2023-04-29T23:52:48.182Z,66.29
2023-04-29T23:55:15.996Z,66.46
2023-04-29T23:57:43.825Z,66.60
